Terminal Aerodrome Forecast
Issued by NWS Sterling, VA

Current Version | Previous Version | Graphics & Text | Print | Product List | Glossary On
Versions: 1 2 3 4 5 6 7 8 9 10 11 12 13 14 15 16 17 18 19 20 21
850
FTUS41 KLWX 252340
TAFIAD
TAF
KIAD 252340Z 2600/2706 05010KT 6SM BR OVC015
     FM260300 01007KT 3SM BR OVC008
     FM261500 33006KT P6SM BKN015
     FM261800 33004KT P6SM BKN025
     FM262000 VRB03KT P6SM SCT035=

USA.gov is the U.S. government's official web portal to all federal, state and local government web resources and services.